Time;durP1;ratioP1;P1;durP2;ratioP2;P2;SDS_P1;SDS_P2;PMS_P1;PMS_P2;Temp;Humidity;BMP_temperature;BMP_pressure;BME280_temperature;BME280_humidity;BME280_pressure;Samples;Min_cycle;Max_cycle;Signal;HPM_P1;HPM_P2
2022/01/25 00:28:25;;;;;;;93.80;48.92;;;;;;;;;;4979332;28;20451;-68
2022/01/25 00:33:24;;;;;;;95.28;51.42;;;;;;;;;;4980407;28;20408;-67
2022/01/25 00:35:50;;;;;;;95.18;48.17;;;;;;;;;;4974468;28;20050;-67
2022/01/25 00:38:16;;;;;;;97.55;49.67;;;;;;;;;;4977403;28;20066;-67
2022/01/25 00:40:42;;;;;;;94.68;49.78;;;;;;;;;;4981999;28;20587;-67
2022/01/25 00:43:09;;;;;;;95.40;49.65;;;;;;;;;;4979407;28;20463;-66
2022/01/25 00:45:35;;;;;;;93.03;50.80;;;;;;;;;;4980790;28;20038;-68
2022/01/25 00:48:04;;;;;;;91.68;50.13;;;;;;;;;;4977495;28;20031;-67
2022/01/25 00:50:40;;;;;;;88.78;48.42;;;;;;;;;;4981513;28;20026;-68
2022/01/25 00:55:33;;;;;;;94.68;52.20;;;;;;;;;;4988127;28;20110;-68
2022/01/25 00:58:00;;;;;;;94.97;49.25;;;;;;;;;;4979619;28;20053;-68
2022/01/25 01:00:28;;;;;;;85.28;47.42;;;;;;;;;;5000508;28;20055;-68
2022/01/25 01:02:55;;;;;;;88.88;49.10;;;;;;;;;;4982244;28;20301;-68
2022/01/25 01:05:21;;;;;;;90.40;49.40;;;;;;;;;;4981474;28;20057;-68
2022/01/25 01:07:48;;;;;;;90.55;49.33;;;;;;;;;;4980285;28;20489;-68
2022/01/25 01:10:19;;;;;;;91.28;49.83;;;;;;;;;;4980748;28;20026;-67
2022/01/25 01:15:35;;;;;;;92.07;49.75;;;;;;;;;;4986076;28;20126;-67
2022/01/25 01:42:49;;;;;;;93.40;49.95;;;;;;;;;;4988030;28;20046;-68
2022/01/25 01:45:38;;;;;;;94.53;49.45;;;;;;;;;;4985810;28;20023;-68
2022/01/25 01:48:08;;;;;;;91.30;48.33;;;;;;;;;;4981334;28;20038;-68
2022/01/25 01:50:36;;;;;;;91.15;47.75;;;;;;;;;;4997516;28;20130;-67
2022/01/25 01:53:03;;;;;;;96.40;50.78;;;;;;;;;;4976247;28;20027;-67
2022/01/25 01:55:30;;;;;;;90.20;48.63;;;;;;;;;;4981862;28;20089;-68
2022/01/25 01:57:57;;;;;;;90.70;48.75;;;;;;;;;;4987625;28;20022;-68
2022/01/25 02:00:26;;;;;;;88.20;48.25;;;;;;;;;;4983768;28;20522;-68
2022/01/25 02:02:53;;;;;;;90.03;48.97;;;;;;;;;;4980721;28;20036;-68
2022/01/25 02:05:19;;;;;;;88.45;47.80;;;;;;;;;;4980365;28;20130;-68
2022/01/25 02:07:45;;;;;;;88.47;47.55;;;;;;;;;;4974942;28;20039;-68
2022/01/25 02:10:11;;;;;;;92.63;49.40;;;;;;;;;;4979749;28;20487;-68
2022/01/25 02:12:37;;;;;;;96.22;50.45;;;;;;;;;;4983453;28;20089;-68
2022/01/25 02:15:04;;;;;;;90.07;48.42;;;;;;;;;;4981792;28;20030;-69
2022/01/25 02:22:52;;;;;;;94.57;48.90;;;;;;;;;;4980433;28;20097;-67
2022/01/25 02:25:18;;;;;;;87.78;46.70;;;;;;;;;;4979796;28;20061;-68
2022/01/25 02:27:44;;;;;;;93.43;48.22;;;;;;;;;;4991533;28;20054;-68
2022/01/25 02:30:10;;;;;;;97.45;49.70;;;;;;;;;;4985155;28;20027;-68
2022/01/25 02:32:37;;;;;;;98.35;52.40;;;;;;;;;;4979082;28;20031;-68
2022/01/25 02:35:03;;;;;;;92.43;47.45;;;;;;;;;;4983728;28;20030;-68
2022/01/25 02:37:29;;;;;;;94.07;48.08;;;;;;;;;;5009646;28;20463;-68
2022/01/25 02:39:55;;;;;;;95.70;48.50;;;;;;;;;;4982335;28;20034;-68
2022/01/25 02:42:22;;;;;;;97.65;50.00;;;;;;;;;;4981684;28;20035;-68
2022/01/25 02:44:48;;;;;;;95.75;49.33;;;;;;;;;;4973534;28;20535;-68
2022/01/25 02:49:59;;;;;;;92.22;47.97;;;;;;;;;;4981152;28;20037;-67
2022/01/25 02:52:26;;;;;;;95.22;49.40;;;;;;;;;;4976521;28;20038;-68
2022/01/25 02:54:52;;;;;;;96.60;48.85;;;;;;;;;;4977467;28;20061;-68
2022/01/25 02:57:18;;;;;;;96.10;50.25;;;;;;;;;;4978254;28;20447;-68
2022/01/25 02:59:45;;;;;;;93.95;50.53;;;;;;;;;;4981979;28;20057;-68
2022/01/25 03:02:11;;;;;;;93.75;48.67;;;;;;;;;;4983793;28;20468;-68
2022/01/25 03:04:37;;;;;;;96.72;50.55;;;;;;;;;;4973296;28;20027;-68
2022/01/25 03:07:03;;;;;;;90.22;45.58;;;;;;;;;;4978125;28;20035;-68
2022/01/25 03:09:29;;;;;;;94.43;47.78;;;;;;;;;;4982434;28;20175;-68
2022/01/25 03:11:56;;;;;;;92.95;47.20;;;;;;;;;;4991576;28;20034;-68
2022/01/25 03:14:26;;;;;;;94.43;49.22;;;;;;;;;;4978029;28;20057;-67
2022/01/25 03:22:03;;;;;;;;;;;;;;;;;;4978894;28;20475;-67
2022/01/25 03:24:29;;;;;;;92.88;47.20;;;;;;;;;;4977048;28;19910;-67
2022/01/25 03:26:55;;;;;;;95.85;48.40;;;;;;;;;;4976482;28;20038;-68
2022/01/25 03:29:21;;;;;;;93.80;47.40;;;;;;;;;;4985696;28;20109;-68
2022/01/25 03:31:48;;;;;;;95.18;47.97;;;;;;;;;;4979798;28;20035;-66
2022/01/25 03:34:14;;;;;;;97.50;48.60;;;;;;;;;;4975721;28;20121;-66
2022/01/25 03:36:42;;;;;;;93.50;47.30;;;;;;;;;;4972338;28;20027;-67
2022/01/25 03:39:08;;;;;;;97.47;49.08;;;;;;;;;;4980356;28;20066;-69
2022/01/25 03:41:35;;;;;;;94.38;47.88;;;;;;;;;;4980467;28;20358;-68
2022/01/25 03:44:01;;;;;;;94.90;49.03;;;;;;;;;;4983530;28;21536;-68
2022/01/25 03:51:46;;;;;;;89.97;47.22;;;;;;;;;;4982458;28;20046;-68
2022/01/25 03:54:12;;;;;;;94.88;50.10;;;;;;;;;;4985859;28;20108;-68
2022/01/25 03:56:38;;;;;;;97.22;50.30;;;;;;;;;;4974376;28;20023;-67
2022/01/25 03:59:06;;;;;;;87.78;47.08;;;;;;;;;;4977305;28;20040;-67
2022/01/25 04:01:32;;;;;;;95.05;48.78;;;;;;;;;;4979606;28;20141;-67
2022/01/25 04:04:02;;;;;;;92.85;49.42;;;;;;;;;;4973468;28;20329;-67
2022/01/25 04:06:31;;;;;;;93.97;49.70;;;;;;;;;;4975983;28;20071;-68
2022/01/25 04:08:58;;;;;;;93.65;47.78;;;;;;;;;;4981945;28;20082;-68
2022/01/25 04:11:24;;;;;;;90.30;47.25;;;;;;;;;;4986892;28;20026;-68
2022/01/25 04:13:52;;;;;;;95.45;48.30;;;;;;;;;;4976957;28;20022;-68
2022/01/25 04:16:23;;;;;;;88.45;46.38;;;;;;;;;;4986517;28;20253;-68
2022/01/25 04:19:05;;;;;;;91.55;47.17;;;;;;;;;;4982915;28;20061;-67
2022/01/25 04:26:45;;;;;;;96.78;48.90;;;;;;;;;;4980106;28;20458;-66
2022/01/25 04:29:11;;;;;;;92.40;49.25;;;;;;;;;;4982648;28;20046;-67
2022/01/25 04:31:38;;;;;;;96.28;49.42;;;;;;;;;;4982849;28;20023;-67
2022/01/25 04:34:36;;;;;;;89.47;46.47;;;;;;;;;;4978969;28;20015;-68
2022/01/25 04:51:03;;;;;;;97.93;48.50;;;;;;;;;;4978936;28;20143;-68
2022/01/25 04:56:22;;;;;;;95.68;49.97;;;;;;;;;;4975625;28;20088;-68
2022/01/25 05:01:42;;;;;;;93.38;46.63;;;;;;;;;;4975800;28;20046;-68
2022/01/25 05:04:17;;;;;;;104.80;52.42;;;;;;;;;;4983743;28;20031;-68
2022/01/25 05:06:46;;;;;;;99.70;49.42;;;;;;;;;;4980881;28;20423;-68
2022/01/25 05:09:14;;;;;;;104.10;50.55;;;;;;;;;;4987617;28;20039;-67
2022/01/25 05:11:48;;;;;;;100.28;49.13;;;;;;;;;;4984078;28;20065;-67
2022/01/25 05:14:21;;;;;;;98.50;50.20;;;;;;;;;;4979432;28;20128;-68
2022/01/25 05:24:40;;;;;;;97.13;49.80;;;;;;;;;;4985776;28;20045;-67
2022/01/25 05:27:07;;;;;;;98.20;49.78;;;;;;;;;;4982321;28;20082;-68
2022/01/25 05:29:33;;;;;;;96.05;50.28;;;;;;;;;;4979542;28;20399;-67
2022/01/25 05:31:59;;;;;;;98.75;49.58;;;;;;;;;;4982696;28;20041;-67
2022/01/25 05:34:26;;;;;;;97.15;50.15;;;;;;;;;;4979471;28;20046;-67
2022/01/25 05:36:52;;;;;;;95.30;50.55;;;;;;;;;;4979762;28;20023;-68
2022/01/25 05:39:23;;;;;;;99.72;49.97;;;;;;;;;;4982629;28;20110;-68
2022/01/25 05:42:14;;;;;;;97.78;48.70;;;;;;;;;;4981505;28;20157;-68
2022/01/25 05:44:53;;;;;;;98.03;47.90;;;;;;;;;;4983696;28;20148;-69
2022/01/25 05:47:24;;;;;;;98.13;49.28;;;;;;;;;;4984662;28;20088;-67
2022/01/25 05:49:50;;;;;;;98.38;48.17;;;;;;;;;;4985095;28;20027;-71
2022/01/25 05:52:16;;;;;;;95.25;49.40;;;;;;;;;;4995574;28;20049;-68
2022/01/25 05:54:42;;;;;;;102.20;50.78;;;;;;;;;;4980840;28;20026;-68
2022/01/25 05:57:08;;;;;;;101.10;50.70;;;;;;;;;;4982189;28;20037;-68
2022/01/25 05:59:37;;;;;;;103.90;50.78;;;;;;;;;;4981173;28;20061;-68
2022/01/25 06:02:03;;;;;;;105.38;50.65;;;;;;;;;;4995830;28;20543;-67
2022/01/25 06:04:29;;;;;;;99.18;49.83;;;;;;;;;;4979795;28;20122;-68
2022/01/25 06:06:55;;;;;;;101.97;49.25;;;;;;;;;;4979816;28;20023;-68
2022/01/25 06:09:24;;;;;;;100.78;49.03;;;;;;;;;;4975964;28;20496;-68
2022/01/25 06:11:50;;;;;;;98.85;49.25;;;;;;;;;;4984420;28;20492;-67
2022/01/25 06:14:16;;;;;;;103.22;49.40;;;;;;;;;;4982779;28;20404;-67
2022/01/25 06:16:42;;;;;;;106.40;52.78;;;;;;;;;;4986392;28;20046;-67
2022/01/25 06:19:08;;;;;;;103.28;49.70;;;;;;;;;;4977087;28;20041;-67
2022/01/25 06:21:34;;;;;;;109.20;51.03;;;;;;;;;;4979739;28;20043;-67
2022/01/25 06:24:00;;;;;;;104.57;50.70;;;;;;;;;;4984086;28;20088;-67
2022/01/25 06:26:26;;;;;;;102.95;50.22;;;;;;;;;;4977554;28;20029;-66
2022/01/25 06:28:52;;;;;;;105.70;51.13;;;;;;;;;;4971403;28;20043;-68
2022/01/25 06:31:19;;;;;;;109.07;49.90;;;;;;;;;;4977509;28;20039;-69
2022/01/25 06:33:45;;;;;;;105.13;53.05;;;;;;;;;;4974900;28;20057;-67
2022/01/25 06:36:11;;;;;;;104.90;51.22;;;;;;;;;;4984238;28;20104;-67
2022/01/25 06:38:38;;;;;;;104.57;50.25;;;;;;;;;;4972288;28;20061;-68
2022/01/25 06:41:04;;;;;;;111.43;52.28;;;;;;;;;;4982318;28;20055;-68
2022/01/25 06:43:30;;;;;;;106.32;49.58;;;;;;;;;;4976105;28;20027;-68
2022/01/25 06:46:00;;;;;;;104.25;49.97;;;;;;;;;;4995521;28;20443;-66
2022/01/25 06:48:27;;;;;;;106.10;50.78;;;;;;;;;;4971514;28;20026;-67
2022/01/25 06:50:53;;;;;;;111.78;50.50;;;;;;;;;;4977186;28;20030;-67
2022/01/25 06:53:19;;;;;;;109.78;51.55;;;;;;;;;;4987393;28;20034;-67
2022/01/25 06:55:45;;;;;;;109.13;52.33;;;;;;;;;;4980457;28;20488;-69
2022/01/25 06:58:11;;;;;;;114.13;52.78;;;;;;;;;;4988821;28;20035;-68
2022/01/25 07:00:38;;;;;;;109.55;51.40;;;;;;;;;;4985657;28;20403;-68
2022/01/25 07:03:04;;;;;;;116.32;53.63;;;;;;;;;;4973196;28;20041;-68
2022/01/25 07:05:30;;;;;;;115.57;52.63;;;;;;;;;;4985067;28;20043;-67
2022/01/25 07:07:56;;;;;;;116.40;53.67;;;;;;;;;;4988942;28;20039;-67
2022/01/25 07:10:22;;;;;;;114.25;52.53;;;;;;;;;;4981971;28;20485;-67
2022/01/25 07:12:49;;;;;;;113.47;52.97;;;;;;;;;;4977926;28;20121;-68
2022/01/25 07:15:15;;;;;;;115.35;51.60;;;;;;;;;;4981869;28;20031;-67
2022/01/25 07:17:41;;;;;;;113.40;53.42;;;;;;;;;;4980792;28;20033;-68
2022/01/25 07:20:08;;;;;;;114.40;54.00;;;;;;;;;;4975479;28;20105;-68
2022/01/25 07:22:34;;;;;;;117.65;51.53;;;;;;;;;;4977961;28;20070;-69
2022/01/25 07:25:01;;;;;;;121.90;55.80;;;;;;;;;;4980549;28;20022;-68
2022/01/25 07:27:27;;;;;;;118.25;56.58;;;;;;;;;;4991660;28;20026;-68
2022/01/25 07:29:53;;;;;;;110.38;52.15;;;;;;;;;;4971028;28;20022;-67
2022/01/25 07:32:19;;;;;;;109.30;51.45;;;;;;;;;;4971245;28;20097;-68
2022/01/25 07:34:45;;;;;;;114.15;54.95;;;;;;;;;;4973236;28;20483;-68
2022/01/25 07:37:11;;;;;;;118.00;54.60;;;;;;;;;;4997899;28;20504;-67
2022/01/25 07:39:37;;;;;;;110.50;52.40;;;;;;;;;;4977930;28;20103;-68
2022/01/25 07:42:03;;;;;;;113.75;53.95;;;;;;;;;;4973412;28;20046;-67
2022/01/25 07:44:32;;;;;;;118.28;54.13;;;;;;;;;;4977250;28;20122;-68
2022/01/25 07:47:00;;;;;;;115.95;53.60;;;;;;;;;;4980000;28;20142;-67
2022/01/25 07:49:27;;;;;;;121.90;56.35;;;;;;;;;;4980654;28;20023;-67
2022/01/25 07:51:53;;;;;;;116.57;51.80;;;;;;;;;;4982926;28;20542;-67
2022/01/25 07:54:20;;;;;;;119.88;55.35;;;;;;;;;;4983434;28;20037;-68
2022/01/25 07:56:46;;;;;;;113.45;53.28;;;;;;;;;;4986995;28;20484;-68
2022/01/25 07:59:12;;;;;;;113.57;53.47;;;;;;;;;;5000284;28;20043;-70
2022/01/25 08:01:38;;;;;;;117.72;55.22;;;;;;;;;;4981425;28;20053;-67
2022/01/25 08:04:05;;;;;;;119.53;54.97;;;;;;;;;;4981635;28;20598;-66
2022/01/25 08:06:31;;;;;;;120.90;54.95;;;;;;;;;;4982648;28;20061;-67
2022/01/25 08:08:58;;;;;;;116.38;51.85;;;;;;;;;;5004282;28;20045;-66
2022/01/25 08:11:24;;;;;;;121.95;57.53;;;;;;;;;;4979798;28;20045;-68
2022/01/25 08:13:52;;;;;;;114.18;53.65;;;;;;;;;;4980771;28;20023;-68
2022/01/25 08:16:18;;;;;;;117.07;54.47;;;;;;;;;;4978731;28;20109;-68
2022/01/25 08:18:44;;;;;;;120.03;55.03;;;;;;;;;;4986343;28;20519;-68
2022/01/25 08:21:10;;;;;;;114.60;53.50;;;;;;;;;;4977950;28;20046;-68
2022/01/25 08:23:36;;;;;;;121.35;54.67;;;;;;;;;;4985600;28;20039;-68
2022/01/25 08:26:03;;;;;;;117.07;54.90;;;;;;;;;;4981919;28;20046;-67
2022/01/25 08:28:30;;;;;;;116.60;55.15;;;;;;;;;;4980812;28;20164;-67
2022/01/25 08:30:56;;;;;;;122.68;56.13;;;;;;;;;;4982676;28;20076;-67
2022/01/25 08:33:24;;;;;;;116.13;53.90;;;;;;;;;;4984186;28;20032;-67
2022/01/25 08:35:50;;;;;;;119.97;54.88;;;;;;;;;;4986740;28;20109;-68
2022/01/25 08:38:16;;;;;;;117.20;51.67;;;;;;;;;;4984790;28;20480;-68
2022/01/25 08:40:42;;;;;;;113.65;53.17;;;;;;;;;;4977792;28;20130;-68
2022/01/25 08:43:08;;;;;;;119.80;56.42;;;;;;;;;;4983382;28;20058;-67
2022/01/25 08:45:34;;;;;;;116.07;53.40;;;;;;;;;;4986312;28;20053;-67
2022/01/25 08:48:00;;;;;;;122.20;56.13;;;;;;;;;;4981250;28;20117;-69
2022/01/25 08:50:26;;;;;;;120.03;55.08;;;;;;;;;;4991298;28;20031;-67
2022/01/25 08:52:53;;;;;;;117.93;55.10;;;;;;;;;;4984109;28;20627;-68
2022/01/25 08:55:19;;;;;;;119.65;55.30;;;;;;;;;;4974199;28;20039;-68
2022/01/25 08:57:45;;;;;;;116.82;54.25;;;;;;;;;;4978838;28;20026;-68
2022/01/25 09:00:12;;;;;;;115.15;53.60;;;;;;;;;;4979885;28;20121;-68
2022/01/25 09:02:40;;;;;;;121.10;53.72;;;;;;;;;;4992158;28;20146;-69
2022/01/25 09:05:06;;;;;;;120.03;54.50;;;;;;;;;;5010907;28;20048;-68
2022/01/25 09:07:32;;;;;;;120.43;55.13;;;;;;;;;;4978665;28;20050;-67
2022/01/25 09:09:58;;;;;;;134.30;56.60;;;;;;;;;;4990025;28;20038;-68
2022/01/25 09:12:24;;;;;;;122.32;54.22;;;;;;;;;;4985983;28;20368;-67
2022/01/25 09:14:50;;;;;;;126.93;55.50;;;;;;;;;;4979989;28;20026;-67
2022/01/25 09:17:16;;;;;;;127.45;58.50;;;;;;;;;;4986697;28;20033;-67
2022/01/25 09:19:42;;;;;;;123.85;55.45;;;;;;;;;;4984339;28;20034;-68
2022/01/25 09:22:09;;;;;;;124.82;55.88;;;;;;;;;;4982965;28;20503;-70
2022/01/25 09:24:37;;;;;;;120.32;54.97;;;;;;;;;;4978180;28;20037;-68
2022/01/25 09:27:05;;;;;;;114.97;56.50;;;;;;;;;;4984143;28;20026;-68
2022/01/25 09:29:31;;;;;;;113.03;51.25;;;;;;;;;;4978440;28;20563;-68
2022/01/25 09:31:57;;;;;;;117.65;54.08;;;;;;;;;;4990860;28;20031;-67
2022/01/25 09:34:25;;;;;;;118.30;54.17;;;;;;;;;;4979792;28;20039;-67
2022/01/25 09:36:51;;;;;;;116.78;53.60;;;;;;;;;;4986568;28;20554;-67
2022/01/25 09:39:17;;;;;;;115.47;52.00;;;;;;;;;;4982281;28;20064;-68
2022/01/25 09:41:44;;;;;;;117.82;52.47;;;;;;;;;;4976569;28;20224;-68
2022/01/25 09:44:10;;;;;;;119.85;52.95;;;;;;;;;;4980710;28;20034;-67
2022/01/25 09:46:37;;;;;;;123.07;53.38;;;;;;;;;;4981655;28;20034;-67
2022/01/25 09:49:03;;;;;;;120.35;54.40;;;;;;;;;;4979145;28;20041;-68
2022/01/25 09:51:30;;;;;;;121.40;52.95;;;;;;;;;;4976800;28;20062;-69
2022/01/25 09:53:56;;;;;;;120.45;55.03;;;;;;;;;;4976065;28;20038;-68
2022/01/25 09:56:22;;;;;;;117.05;54.92;;;;;;;;;;4977009;28;20022;-67
2022/01/25 09:58:49;;;;;;;125.00;57.10;;;;;;;;;;4978298;28;20031;-68
2022/01/25 10:01:16;;;;;;;130.90;55.40;;;;;;;;;;4984180;28;20089;-68
2022/01/25 10:03:45;;;;;;;120.18;53.72;;;;;;;;;;4976392;28;20048;-67
2022/01/25 10:06:12;;;;;;;131.68;56.10;;;;;;;;;;4980944;28;20023;-68
2022/01/25 10:08:39;;;;;;;117.60;52.80;;;;;;;;;;4979404;28;20464;-69
2022/01/25 10:11:06;;;;;;;123.32;53.50;;;;;;;;;;4977942;28;20081;-67
2022/01/25 10:13:34;;;;;;;118.05;53.33;;;;;;;;;;4978298;28;20019;-67
2022/01/25 10:16:30;;;;;;;123.22;52.85;;;;;;;;;;4979228;28;20062;-67
2022/01/25 10:18:57;;;;;;;122.82;54.40;;;;;;;;;;4979793;28;20054;-68
2022/01/25 10:21:25;;;;;;;127.43;55.67;;;;;;;;;;4976549;28;20527;-67
2022/01/25 10:24:01;;;;;;;124.97;54.60;;;;;;;;;;4979790;28;20067;-68
2022/01/25 10:26:30;;;;;;;124.80;54.65;;;;;;;;;;4982241;28;20381;-68
2022/01/25 10:28:56;;;;;;;116.65;51.92;;;;;;;;;;4981332;28;20039;-67
2022/01/25 10:31:32;;;;;;;116.18;51.88;;;;;;;;;;4979391;28;20039;-68
2022/01/25 10:33:58;;;;;;;122.20;54.13;;;;;;;;;;4982918;28;20030;-68
2022/01/25 10:36:24;;;;;;;129.05;54.17;;;;;;;;;;4988311;28;21123;-68
2022/01/25 10:38:54;;;;;;;123.53;55.85;;;;;;;;;;4978939;28;20030;-67
2022/01/25 10:41:22;;;;;;;119.65;53.03;;;;;;;;;;4982780;28;20045;-68
2022/01/25 10:43:49;;;;;;;120.25;54.67;;;;;;;;;;4978902;28;20214;-68
2022/01/25 10:46:17;;;;;;;120.38;51.13;;;;;;;;;;4982079;28;20026;-67
2022/01/25 10:48:48;;;;;;;122.00;53.88;;;;;;;;;;4974962;28;20031;-68
2022/01/25 10:51:25;;;;;;;127.70;53.35;;;;;;;;;;4974169;28;20045;-68
2022/01/25 10:54:17;;;;;;;120.15;52.88;;;;;;;;;;4986880;28;20018;-68
2022/01/25 10:56:43;;;;;;;127.10;54.47;;;;;;;;;;4985783;28;20039;-67
2022/01/25 10:59:11;;;;;;;121.25;52.55;;;;;;;;;;4982490;28;20045;-69
2022/01/25 11:01:39;;;;;;;119.43;53.45;;;;;;;;;;4982573;28;20085;-68
2022/01/25 11:04:10;;;;;;;122.65;51.97;;;;;;;;;;4983712;28;20026;-69
2022/01/25 11:06:37;;;;;;;147.13;56.22;;;;;;;;;;4980059;28;20400;-69
2022/01/25 11:09:06;;;;;;;132.93;55.90;;;;;;;;;;4983876;28;20053;-67
2022/01/25 11:11:46;;;;;;;124.13;53.60;;;;;;;;;;4979865;28;20027;-68
2022/01/25 11:16:58;;;;;;;132.98;54.50;;;;;;;;;;4980702;28;20041;-68
2022/01/25 11:19:25;;;;;;;116.30;52.35;;;;;;;;;;4979138;28;20031;-69
2022/01/25 11:21:52;;;;;;;130.38;53.60;;;;;;;;;;4978208;28;20492;-68
2022/01/25 11:24:19;;;;;;;116.00;51.65;;;;;;;;;;4982459;28;20041;-69
2022/01/25 11:26:47;;;;;;;118.55;51.85;;;;;;;;;;4981723;28;20129;-68
2022/01/25 11:29:13;;;;;;;118.70;53.55;;;;;;;;;;4978114;28;20045;-69
2022/01/25 11:31:40;;;;;;;114.80;49.67;;;;;;;;;;4982137;28;20035;-67
2022/01/25 11:34:09;;;;;;;118.43;53.58;;;;;;;;;;4976757;28;20023;-67
2022/01/25 11:36:46;;;;;;;122.28;53.25;;;;;;;;;;4981904;28;20046;-67
2022/01/25 11:39:12;;;;;;;124.35;51.67;;;;;;;;;;4982272;28;20169;-67
2022/01/25 11:41:42;;;;;;;123.25;52.13;;;;;;;;;;4979948;28;20038;-67
2022/01/25 11:44:09;;;;;;;122.47;52.10;;;;;;;;;;4979847;28;20037;-67
2022/01/25 11:46:37;;;;;;;120.03;51.65;;;;;;;;;;4979552;28;20281;-68
2022/01/25 11:49:07;;;;;;;121.85;51.92;;;;;;;;;;4988793;28;20182;-68
2022/01/25 11:51:34;;;;;;;113.75;50.38;;;;;;;;;;4980975;28;20027;-68
2022/01/25 11:54:01;;;;;;;114.03;48.08;;;;;;;;;;4981786;28;20033;-68
2022/01/25 11:56:28;;;;;;;115.40;49.85;;;;;;;;;;4980599;28;20165;-68
2022/01/25 11:58:55;;;;;;;122.90;51.60;;;;;;;;;;4983259;28;20471;-68
2022/01/25 12:01:23;;;;;;;114.20;50.22;;;;;;;;;;4979467;28;20057;-68
2022/01/25 12:03:59;;;;;;;119.40;51.85;;;;;;;;;;4983718;28;20038;-69
2022/01/25 12:06:34;;;;;;;120.68;51.63;;;;;;;;;;4978205;28;20061;-68
2022/01/25 12:09:08;;;;;;;116.38;51.25;;;;;;;;;;4983048;28;20038;-68
2022/01/25 12:11:58;;;;;;;113.90;50.42;;;;;;;;;;4984110;28;20045;-68
2022/01/25 12:14:31;;;;;;;114.00;50.70;;;;;;;;;;4984885;28;20034;-68
2022/01/25 12:17:03;;;;;;;119.13;50.40;;;;;;;;;;4981277;28;20041;-68
2022/01/25 12:19:48;;;;;;;131.95;53.00;;;;;;;;;;4976458;28;20038;-68
2022/01/25 12:22:27;;;;;;;125.82;49.55;;;;;;;;;;4981670;28;20023;-68
2022/01/25 12:25:18;;;;;;;106.47;48.67;;;;;;;;;;4979231;28;20030;-68
2022/01/25 12:27:58;;;;;;;122.23;48.60;;;;;;;;;;4979611;28;20030;-69
2022/01/25 12:30:27;;;;;;;118.63;50.88;;;;;;;;;;4975309;28;20274;-67
2022/01/25 12:32:55;;;;;;;116.93;50.28;;;;;;;;;;4989186;28;20510;-68
2022/01/25 12:35:40;;;;;;;114.68;48.10;;;;;;;;;;4980298;28;20110;-67
2022/01/25 12:38:07;;;;;;;116.95;51.00;;;;;;;;;;4982238;28;20128;-67
2022/01/25 12:40:35;;;;;;;112.72;49.60;;;;;;;;;;4978078;28;20042;-68
2022/01/25 12:43:06;;;;;;;156.93;50.83;;;;;;;;;;4982739;28;20030;-68
2022/01/25 12:45:32;;;;;;;;;;;;;;;;;;4981403;28;20023;-67
2022/01/25 12:48:04;;;;;;;118.85;46.75;;;;;;;;;;4982059;28;19990;-68
2022/01/25 12:50:30;;;;;;;108.05;46.60;;;;;;;;;;4982750;28;20062;-67
2022/01/25 12:52:59;;;;;;;117.07;51.42;;;;;;;;;;4980955;28;20026;-68
2022/01/25 12:55:26;;;;;;;114.50;48.25;;;;;;;;;;4981699;28;20026;-67
2022/01/25 12:57:54;;;;;;;116.57;48.10;;;;;;;;;;4977715;28;20473;-68
2022/01/25 13:00:20;;;;;;;109.55;47.45;;;;;;;;;;4984861;28;20030;-67
2022/01/25 13:02:46;;;;;;;119.53;47.72;;;;;;;;;;5007779;28;20023;-67
2022/01/25 13:05:15;;;;;;;124.22;47.70;;;;;;;;;;4979428;28;20111;-68
2022/01/25 13:07:41;;;;;;;124.60;49.17;;;;;;;;;;4978232;28;20121;-66
2022/01/25 13:10:10;;;;;;;104.35;46.17;;;;;;;;;;4980258;28;20027;-67
2022/01/25 13:12:47;;;;;;;109.30;48.75;;;;;;;;;;4977693;28;20030;-69
2022/01/25 13:18:14;;;;;;;110.97;47.17;;;;;;;;;;4983565;28;20507;-69
2022/01/25 13:20:42;;;;;;;121.43;48.83;;;;;;;;;;5000426;28;20412;-68
2022/01/25 13:23:08;;;;;;;113.03;48.85;;;;;;;;;;4978176;28;20041;-68
2022/01/25 13:25:58;;;;;;;112.88;48.38;;;;;;;;;;4996283;28;20062;-67
2022/01/25 13:31:25;;;;;;;109.88;47.40;;;;;;;;;;4960980;28;20476;-67
2022/01/25 13:33:54;;;;;;;103.82;47.15;;;;;;;;;;5002456;28;20408;-67
2022/01/25 13:36:21;;;;;;;106.13;46.72;;;;;;;;;;4983981;28;20046;-67
2022/01/25 13:38:49;;;;;;;108.13;45.70;;;;;;;;;;4985972;28;20127;-67
2022/01/25 13:41:18;;;;;;;115.25;47.65;;;;;;;;;;4987539;28;20376;-67
2022/01/25 13:46:39;;;;;;;114.93;46.95;;;;;;;;;;4977789;28;20130;-67
2022/01/25 13:49:06;;;;;;;108.90;46.63;;;;;;;;;;4977887;28;20065;-67
2022/01/25 13:51:44;;;;;;;112.75;48.80;;;;;;;;;;4978536;28;20045;-67
2022/01/25 13:54:12;;;;;;;109.22;47.58;;;;;;;;;;4983428;28;20034;-68
2022/01/25 13:56:38;;;;;;;111.22;46.95;;;;;;;;;;4989937;28;20041;-67
2022/01/25 13:59:06;;;;;;;116.40;47.50;;;;;;;;;;4990283;28;20061;-67
2022/01/25 14:01:33;;;;;;;111.47;49.33;;;;;;;;;;4982882;28;20557;-67
2022/01/25 14:04:09;;;;;;;112.70;48.25;;;;;;;;;;4979669;28;20188;-67
2022/01/25 14:06:39;;;;;;;110.65;46.92;;;;;;;;;;4988021;28;20045;-67
2022/01/25 14:09:26;;;;;;;109.93;46.85;;;;;;;;;;4984546;28;20026;-67
2022/01/25 14:21:33;;;;;;;114.53;47.17;;;;;;;;;;4982926;28;20495;-67
2022/01/25 14:25:39;;;;;;;121.75;48.78;;;;;;;;;;4988141;28;20116;-68
2022/01/25 14:28:07;;;;;;;113.65;47.15;;;;;;;;;;4975742;28;20726;-70
2022/01/25 14:30:34;;;;;;;117.63;47.97;;;;;;;;;;4996617;28;20033;-67
2022/01/25 14:33:14;;;;;;;118.32;47.17;;;;;;;;;;4984068;28;20026;-67
2022/01/25 14:35:46;;;;;;;139.05;50.35;;;;;;;;;;4991713;28;20030;-68
2022/01/25 14:38:16;;;;;;;115.68;47.28;;;;;;;;;;4987273;28;20022;-68
2022/01/25 14:40:54;;;;;;;120.30;46.85;;;;;;;;;;4989781;28;20160;-68
2022/01/25 14:43:24;;;;;;;112.28;47.35;;;;;;;;;;4985586;28;20034;-68
2022/01/25 14:45:58;;;;;;;118.80;50.47;;;;;;;;;;4983175;28;20343;-67
2022/01/25 14:48:24;;;;;;;132.02;51.38;;;;;;;;;;4978557;28;20033;-67
2022/01/25 14:50:57;;;;;;;143.43;58.17;;;;;;;;;;4995872;28;20026;-67
2022/01/25 14:53:23;;;;;;;111.68;47.03;;;;;;;;;;4975182;28;20034;-68
2022/01/25 14:55:51;;;;;;;117.35;46.42;;;;;;;;;;4979824;28;20477;-67
2022/01/25 15:00:54;;;;;;;159.13;65.97;;;;;;;;;;4979077;28;20052;-67
2022/01/25 15:03:21;;;;;;;126.32;49.78;;;;;;;;;;4976371;28;20183;-67
2022/01/25 15:05:48;;;;;;;123.05;47.25;;;;;;;;;;4977593;28;20108;-68
2022/01/25 15:08:15;;;;;;;168.55;51.33;;;;;;;;;;4978823;28;20038;-68
2022/01/25 15:10:46;;;;;;;115.60;47.38;;;;;;;;;;4976716;28;20404;-67
2022/01/25 15:13:14;;;;;;;127.28;49.33;;;;;;;;;;4981631;28;20033;-67
2022/01/25 15:15:57;;;;;;;125.43;48.55;;;;;;;;;;4979968;28;20121;-67
2022/01/25 15:18:28;;;;;;;127.00;52.95;;;;;;;;;;4976795;28;20026;-66
2022/01/25 15:20:54;;;;;;;;;;;;;;;;;;4985398;28;20427;-67
2022/01/25 15:23:22;;;;;;;139.77;52.63;;;;;;;;;;4980946;28;19927;-68
2022/01/25 15:25:55;;;;;;;135.52;57.25;;;;;;;;;;4975758;28;20049;-68
2022/01/25 15:28:22;;;;;;;121.13;48.15;;;;;;;;;;4979581;28;20099;-68
2022/01/25 15:30:48;;;;;;;140.75;51.03;;;;;;;;;;4981970;28;20034;-69
2022/01/25 15:33:14;;;;;;;144.07;55.40;;;;;;;;;;4984529;28;20039;-67
2022/01/25 15:35:41;;;;;;;127.88;50.33;;;;;;;;;;4973757;28;20034;-68
2022/01/25 15:38:07;;;;;;;142.88;53.80;;;;;;;;;;4987974;28;20495;-67
2022/01/25 15:40:34;;;;;;;117.50;47.40;;;;;;;;;;4989033;28;20061;-69
2022/01/25 15:43:02;;;;;;;134.88;49.55;;;;;;;;;;4981014;28;20038;-68
2022/01/25 15:45:42;;;;;;;136.32;51.47;;;;;;;;;;4992614;28;20029;-68
2022/01/25 15:48:10;;;;;;;125.35;48.38;;;;;;;;;;4982470;28;20278;-67
2022/01/25 15:50:36;;;;;;;120.28;47.63;;;;;;;;;;4976922;28;20281;-67
2022/01/25 15:53:02;;;;;;;120.68;47.05;;;;;;;;;;4993510;28;20038;-67
2022/01/25 15:55:28;;;;;;;128.43;48.33;;;;;;;;;;4983763;28;20404;-67
2022/01/25 15:57:54;;;;;;;122.35;47.38;;;;;;;;;;4976858;28;20065;-67
2022/01/25 16:00:27;;;;;;;119.45;48.10;;;;;;;;;;4985684;28;20039;-67
2022/01/25 16:02:53;;;;;;;122.32;48.17;;;;;;;;;;4981118;28;20595;-68
2022/01/25 16:05:21;;;;;;;116.45;45.25;;;;;;;;;;4983210;28;20741;-68
2022/01/25 16:07:48;;;;;;;126.97;47.85;;;;;;;;;;4979128;28;20038;-68
2022/01/25 16:10:15;;;;;;;130.38;47.92;;;;;;;;;;4982040;28;20639;-67
2022/01/25 16:12:41;;;;;;;119.68;46.85;;;;;;;;;;4981929;28;20023;-68
2022/01/25 16:15:07;;;;;;;129.98;49.17;;;;;;;;;;4978768;28;20122;-67
2022/01/25 16:17:33;;;;;;;119.40;47.63;;;;;;;;;;4982940;28;20066;-68
2022/01/25 16:19:59;;;;;;;140.57;49.78;;;;;;;;;;4988513;28;20112;-68
2022/01/25 16:22:25;;;;;;;123.85;47.25;;;;;;;;;;4983741;28;20066;-68
2022/01/25 16:24:51;;;;;;;132.52;48.72;;;;;;;;;;4984662;28;20034;-68
2022/01/25 16:27:18;;;;;;;127.30;49.30;;;;;;;;;;4980322;28;20042;-68
2022/01/25 16:29:44;;;;;;;135.98;46.92;;;;;;;;;;4977971;28;20042;-68
2022/01/25 16:32:12;;;;;;;130.77;48.08;;;;;;;;;;5008443;28;20121;-68